createdAt,value
2024-05-09T00:00:47.826Z,10.20
2024-05-09T00:03:36.060Z,7.50
2024-05-09T00:06:05.224Z,8.50
2024-05-09T00:08:33.641Z,7.20
2024-05-09T00:11:02.141Z,8.80
2024-05-09T00:13:30.533Z,7.00
2024-05-09T00:15:59.428Z,7.20
2024-05-09T00:18:27.555Z,7.50
2024-05-09T00:20:55.759Z,8.30
2024-05-09T00:23:23.991Z,9.00
2024-05-09T00:25:52.145Z,8.60
2024-05-09T00:28:20.102Z,7.70
2024-05-09T00:30:48.019Z,7.90
2024-05-09T00:33:16.402Z,7.00
2024-05-09T00:35:44.911Z,7.00
2024-05-09T00:38:13.138Z,8.20
2024-05-09T00:40:43.152Z,7.90
2024-05-09T00:43:14.042Z,7.90
2024-05-09T00:45:44.096Z,7.70
2024-05-09T00:48:17.533Z,7.90
2024-05-09T00:50:48.480Z,7.60
2024-05-09T00:53:18.391Z,8.10
2024-05-09T00:55:47.632Z,7.40
2024-05-09T00:58:21.219Z,9.90
2024-05-09T01:00:51.000Z,7.90
2024-05-09T01:03:20.384Z,6.80
2024-05-09T01:05:48.772Z,9.40
2024-05-09T01:08:18.237Z,8.00
2024-05-09T01:10:48.525Z,7.10
2024-05-09T01:13:17.143Z,8.40
2024-05-09T01:15:47.946Z,8.00
2024-05-09T01:18:16.609Z,7.80
2024-05-09T01:20:45.634Z,7.70
2024-05-09T01:23:15.861Z,8.30
2024-05-09T01:25:46.433Z,8.40
2024-05-09T01:28:16.220Z,8.70
2024-05-09T01:30:44.504Z,8.70
2024-05-09T01:33:13.419Z,8.80
2024-05-09T01:35:42.882Z,7.00
2024-05-09T01:38:17.497Z,7.90
2024-05-09T01:40:47.110Z,8.70
2024-05-09T01:43:15.973Z,8.80
2024-05-09T01:45:44.057Z,9.10
2024-05-09T01:48:12.998Z,7.30
2024-05-09T01:50:43.057Z,7.90
2024-05-09T01:53:14.082Z,7.40
2024-05-09T01:55:44.066Z,12.30
2024-05-09T01:58:12.979Z,7.80
2024-05-09T02:00:43.028Z,7.30
2024-05-09T02:03:15.660Z,8.30
2024-05-09T02:05:48.007Z,6.90
2024-05-09T02:08:18.935Z,8.80
2024-05-09T02:10:49.170Z,8.40
2024-05-09T02:13:17.813Z,7.50
2024-05-09T02:15:46.007Z,8.90
2024-05-09T02:18:14.521Z,7.90
2024-05-09T02:20:43.438Z,7.50
2024-05-09T02:23:13.922Z,8.20
2024-05-09T02:25:42.088Z,8.30
2024-05-09T02:28:10.189Z,7.80
2024-05-09T02:30:41.103Z,10.40
2024-05-09T02:33:12.289Z,7.10
2024-05-09T02:35:43.691Z,7.10
2024-05-09T02:38:12.955Z,8.70
2024-05-09T02:40:41.558Z,7.80
2024-05-09T02:43:12.918Z,7.40
2024-05-09T02:45:41.653Z,8.00
2024-05-09T02:48:13.871Z,8.30
2024-05-09T02:50:44.360Z,7.60
2024-05-09T02:53:13.668Z,7.70
2024-05-09T02:55:43.047Z,6.80
2024-05-09T02:58:11.742Z,7.30
2024-05-09T03:00:42.278Z,8.10
2024-05-09T03:03:14.108Z,9.10
2024-05-09T03:05:45.385Z,6.60
2024-05-09T03:08:14.076Z,7.90
2024-05-09T03:10:42.831Z,7.90
2024-05-09T03:13:14.395Z,7.40
2024-05-09T03:15:45.017Z,8.50
2024-05-09T03:18:14.072Z,8.00
2024-05-09T03:20:44.451Z,9.60
2024-05-09T03:23:12.976Z,8.20
2024-05-09T03:25:41.016Z,8.10
2024-05-09T03:28:08.997Z,7.00
2024-05-09T03:30:41.812Z,8.40
2024-05-09T03:33:13.963Z,7.40
2024-05-09T03:35:44.106Z,6.50
2024-05-09T03:38:12.541Z,7.80
2024-05-09T03:40:48.217Z,8.60
2024-05-09T03:43:17.471Z,7.80
2024-05-09T03:45:48.750Z,9.50
2024-05-09T03:48:17.349Z,7.30
2024-05-09T03:50:45.696Z,8.30
2024-05-09T03:53:14.891Z,6.60
2024-05-09T03:55:42.895Z,8.00
2024-05-09T03:58:12.971Z,11.30
2024-05-09T04:00:42.310Z,7.40
2024-05-09T04:03:12.277Z,8.20
2024-05-09T04:05:42.800Z,7.50
2024-05-09T04:08:15.242Z,7.80
2024-05-09T04:10:44.061Z,7.90
2024-05-09T04:13:12.783Z,8.00
2024-05-09T04:15:40.871Z,8.10
2024-05-09T04:18:09.375Z,8.30
2024-05-09T04:20:40.354Z,7.80
2024-05-09T04:23:14.599Z,10.60
2024-05-09T04:25:45.379Z,7.20
2024-05-09T04:28:14.560Z,7.90
2024-05-09T04:30:43.259Z,8.20
2024-05-09T04:33:13.769Z,9.00
2024-05-09T04:38:13.788Z,8.50
2024-05-09T04:40:42.837Z,6.90
2024-05-09T04:43:16.157Z,6.90
2024-05-09T04:45:44.853Z,7.60
2024-05-09T04:48:13.670Z,6.80
2024-05-09T04:50:42.247Z,7.90
2024-05-09T04:53:15.038Z,6.50
2024-05-09T04:55:43.404Z,9.50
2024-05-09T04:58:12.005Z,7.30
2024-05-09T05:00:41.430Z,6.40
2024-05-09T05:03:13.965Z,7.80
2024-05-09T05:05:46.556Z,6.10
2024-05-09T05:08:17.232Z,7.10
2024-05-09T05:10:48.120Z,6.20
2024-05-09T05:13:21.662Z,6.30
2024-05-09T05:15:55.910Z,7.70
2024-05-09T05:18:25.603Z,5.90
2024-05-09T05:20:55.549Z,6.20
2024-05-09T05:23:24.563Z,5.90
2024-05-09T05:25:55.679Z,7.40
2024-05-09T05:28:24.124Z,6.90
2024-05-09T05:30:52.241Z,7.90
2024-05-09T05:33:22.572Z,7.00
2024-05-09T05:35:51.293Z,7.30
2024-05-09T05:38:21.952Z,7.00
2024-05-09T05:40:52.016Z,7.00
2024-05-09T05:43:20.632Z,9.90
2024-05-09T05:45:48.657Z,8.20
2024-05-09T05:48:17.827Z,9.00
2024-05-09T05:50:46.737Z,7.50
2024-05-09T05:53:14.970Z,7.10
2024-05-09T05:55:43.079Z,7.20
2024-05-09T05:58:12.179Z,7.30
2024-05-09T06:00:42.001Z,6.70
2024-05-09T06:03:13.290Z,8.00
2024-05-09T06:05:46.711Z,7.90
2024-05-09T06:08:15.202Z,7.40
2024-05-09T06:10:43.384Z,7.50
2024-05-09T06:13:13.133Z,6.90
2024-05-09T06:15:42.809Z,7.60
2024-05-09T06:18:12.627Z,6.90
2024-05-09T06:20:42.844Z,7.90
2024-05-09T06:23:12.918Z,8.10
2024-05-09T06:25:42.190Z,8.10
2024-05-09T06:28:11.276Z,9.30
2024-05-09T06:30:42.011Z,6.20
2024-05-09T06:33:14.431Z,6.40
2024-05-09T06:35:46.042Z,7.90
2024-05-09T06:38:14.810Z,6.40
2024-05-09T06:40:44.127Z,6.20
2024-05-09T06:43:18.705Z,6.60
2024-05-09T06:45:49.549Z,5.70
2024-05-09T06:48:19.735Z,6.90
2024-05-09T06:50:49.272Z,5.80
2024-05-09T06:53:20.554Z,6.30
2024-05-09T06:55:48.838Z,7.00
2024-05-09T06:58:16.859Z,7.70
2024-05-09T07:00:45.195Z,6.30
2024-05-09T07:03:16.878Z,6.30
2024-05-09T07:05:48.707Z,6.30
2024-05-09T07:08:18.451Z,7.20
2024-05-09T07:10:47.009Z,7.90
2024-05-09T07:13:15.674Z,7.70
2024-05-09T07:15:44.442Z,8.90
2024-05-09T07:18:18.044Z,7.40
2024-05-09T07:20:48.557Z,7.70
2024-05-09T07:23:18.076Z,7.00
2024-05-09T07:25:46.379Z,7.50
2024-05-09T07:28:20.431Z,6.90
2024-05-09T07:30:48.588Z,9.00
2024-05-09T07:33:22.541Z,7.20
2024-05-09T07:35:52.445Z,6.30
2024-05-09T07:38:20.973Z,7.40
2024-05-09T07:40:49.442Z,7.20
2024-05-09T07:43:17.895Z,8.80
2024-05-09T07:45:52.557Z,7.50
2024-05-09T07:52:38.946Z,7.40
2024-05-09T07:53:48.341Z,7.10
2024-05-09T07:56:22.503Z,7.60
2024-05-09T07:58:53.824Z,6.60
2024-05-09T08:01:22.347Z,6.90
2024-05-09T08:03:50.852Z,7.80
2024-05-09T08:06:19.112Z,7.20
2024-05-09T08:08:47.953Z,8.10
2024-05-09T08:11:16.097Z,6.10
2024-05-09T08:13:44.202Z,7.00
2024-05-09T08:16:14.492Z,6.50
2024-05-09T08:18:42.743Z,8.20
2024-05-09T08:21:11.177Z,6.60
2024-05-09T08:23:39.353Z,5.50
2024-05-09T08:26:07.401Z,7.40
2024-05-09T08:28:35.594Z,6.10
2024-05-09T08:31:06.876Z,7.80
2024-05-09T08:33:35.782Z,9.50
2024-05-09T08:36:04.387Z,6.60
2024-05-09T08:38:32.699Z,7.80
2024-05-09T08:41:03.884Z,7.60
2024-05-09T08:46:00.370Z,6.80
2024-05-09T08:48:31.148Z,7.50
2024-05-09T08:51:01.453Z,7.70
2024-05-09T08:53:29.517Z,7.50
2024-05-09T08:56:01.893Z,6.10
2024-05-09T08:58:33.358Z,7.80
2024-05-09T09:01:04.186Z,8.10
2024-05-09T09:03:34.103Z,6.80
2024-05-09T09:06:06.552Z,6.70
2024-05-09T09:08:36.015Z,7.20
2024-05-09T09:11:05.206Z,6.70
2024-05-09T09:13:33.335Z,6.80
2024-05-09T09:16:02.532Z,7.70
2024-05-09T09:18:31.274Z,7.20
2024-05-09T09:20:59.709Z,6.80
2024-05-09T09:23:29.561Z,7.90
2024-05-09T09:26:01.185Z,7.40
2024-05-09T09:28:29.736Z,6.60
2024-05-09T09:31:05.376Z,7.70
2024-05-09T09:33:35.589Z,7.40
2024-05-09T09:36:04.988Z,6.00
2024-05-09T09:38:36.880Z,6.70
2024-05-09T09:41:08.022Z,8.50
2024-05-09T09:43:37.060Z,8.00
2024-05-09T09:46:09.541Z,8.90
2024-05-09T09:48:41.500Z,7.10
2024-05-09T09:51:10.503Z,7.80
2024-05-09T09:53:39.844Z,7.60
2024-05-09T09:56:10.138Z,6.80
2024-05-09T09:58:40.603Z,7.50
2024-05-09T10:01:08.836Z,7.40
2024-05-09T10:03:37.129Z,7.40
2024-05-09T10:06:07.634Z,7.20
2024-05-09T10:08:36.601Z,6.80
2024-05-09T10:11:04.978Z,7.90
2024-05-09T10:13:34.736Z,6.90
2024-05-09T10:16:09.251Z,7.10
2024-05-09T10:18:39.068Z,6.90
2024-05-09T10:21:20.115Z,8.40
2024-05-09T10:24:03.462Z,7.30
2024-05-09T10:26:32.828Z,9.30
2024-05-09T10:29:10.262Z,7.50
2024-05-09T10:31:41.325Z,6.80
2024-05-09T10:34:33.565Z,7.20
2024-05-09T10:37:04.199Z,7.10
2024-05-09T10:39:37.084Z,6.90
2024-05-09T10:42:10.172Z,9.40
2024-05-09T10:44:38.466Z,7.70
2024-05-09T10:47:06.701Z,8.20
2024-05-09T10:49:35.451Z,8.80
2024-05-09T10:52:04.169Z,10.60
2024-05-09T10:54:36.715Z,8.80
2024-05-09T10:57:05.782Z,6.70
2024-05-09T10:59:35.755Z,10.30
2024-05-09T11:02:04.917Z,8.70
2024-05-09T11:04:34.509Z,11.10
2024-05-09T11:07:08.801Z,8.30
2024-05-09T11:09:38.756Z,7.50
2024-05-09T11:12:08.485Z,8.60
2024-05-09T11:14:36.816Z,9.00
2024-05-09T11:17:06.966Z,7.30
2024-05-09T11:19:40.318Z,9.80
2024-05-09T11:22:08.585Z,8.30
2024-05-09T11:24:37.339Z,6.70
2024-05-09T11:27:06.107Z,7.30
2024-05-09T11:29:41.763Z,7.90
2024-05-09T11:32:16.598Z,9.20
2024-05-09T11:34:44.705Z,7.60
2024-05-09T11:37:13.734Z,9.00
2024-05-09T11:39:41.732Z,9.40
2024-05-09T11:42:09.735Z,10.70
2024-05-09T11:44:37.837Z,10.40
2024-05-09T11:47:05.807Z,11.90
2024-05-09T11:49:34.006Z,10.50
2024-05-09T11:52:02.214Z,8.50
2024-05-09T11:54:30.267Z,7.90
2024-05-09T11:56:58.293Z,7.70
2024-05-09T11:59:26.383Z,8.20
2024-05-09T12:01:54.572Z,8.90
2024-05-09T12:04:22.810Z,8.50
2024-05-09T12:06:51.033Z,9.00
2024-05-09T12:09:19.124Z,7.90
2024-05-09T12:11:47.477Z,7.70
2024-05-09T12:14:15.351Z,7.10
2024-05-09T12:16:43.397Z,9.50
2024-05-09T12:19:11.598Z,9.90
2024-05-09T12:21:39.848Z,8.20
2024-05-09T12:24:07.819Z,6.90
2024-05-09T12:26:35.715Z,6.70
2024-05-09T12:29:03.834Z,7.10
2024-05-09T12:31:31.772Z,9.90
2024-05-09T12:34:00.425Z,7.40
2024-05-09T12:36:30.545Z,8.80
2024-05-09T12:38:58.483Z,6.80
2024-05-09T12:41:26.544Z,7.80
2024-05-09T12:43:54.608Z,6.30
2024-05-09T12:46:23.239Z,8.70
2024-05-09T12:48:51.826Z,6.60
2024-05-09T12:51:20.149Z,7.30
2024-05-09T12:53:48.130Z,7.70
2024-05-09T12:56:16.201Z,10.30
2024-05-09T12:58:44.578Z,8.10
2024-05-09T13:01:12.620Z,8.90
2024-05-09T13:03:40.763Z,7.60
2024-05-09T13:06:09.036Z,9.10
2024-05-09T13:08:37.199Z,7.80
2024-05-09T13:11:05.545Z,7.70
2024-05-09T13:13:33.440Z,10.90
2024-05-09T13:16:01.755Z,7.70
2024-05-09T13:18:29.880Z,6.50
2024-05-09T13:20:58.252Z,9.40
2024-05-09T13:23:26.459Z,8.60
2024-05-09T13:25:54.796Z,7.90
2024-05-09T13:28:23.066Z,9.70
2024-05-09T13:30:51.299Z,8.30
2024-05-09T13:33:19.386Z,9.10
2024-05-09T13:35:50.422Z,9.70
2024-05-09T13:38:20.863Z,10.20
2024-05-09T13:40:50.431Z,9.40
2024-05-09T13:43:19.976Z,10.20
2024-05-09T13:45:48.312Z,9.10
2024-05-09T13:48:16.667Z,10.20
2024-05-09T13:50:45.747Z,9.10
2024-05-09T13:53:13.715Z,8.70
2024-05-09T13:55:41.860Z,9.60
2024-05-09T13:58:10.274Z,8.70
2024-05-09T14:00:46.161Z,11.10
2024-05-09T14:03:19.842Z,8.80
2024-05-09T14:05:50.945Z,10.10
2024-05-09T14:08:21.743Z,10.00
2024-05-09T14:10:50.836Z,8.40
2024-05-09T14:13:19.764Z,7.60
2024-05-09T14:15:48.563Z,9.40
2024-05-09T14:18:18.147Z,10.00
2024-05-09T14:20:46.222Z,8.20
2024-05-09T14:23:14.979Z,8.00
2024-05-09T14:25:45.015Z,8.40
2024-05-09T14:28:13.965Z,10.70
2024-05-09T14:30:42.978Z,9.10
2024-05-09T14:33:11.973Z,9.80
2024-05-09T14:35:40.336Z,9.60
2024-05-09T14:38:09.734Z,8.40
2024-05-09T14:40:42.454Z,7.10
2024-05-09T14:43:14.594Z,9.80
2024-05-09T14:45:44.328Z,7.90
2024-05-09T14:48:16.193Z,7.60
2024-05-09T14:50:44.413Z,8.90
2024-05-09T14:53:13.729Z,8.00
2024-05-09T14:55:43.777Z,9.00
2024-05-09T14:58:13.003Z,9.10
2024-05-09T15:00:46.556Z,7.00
2024-05-09T15:03:20.077Z,10.30
2024-05-09T15:05:49.320Z,7.80
2024-05-09T15:08:18.693Z,7.90
2024-05-09T15:10:49.590Z,8.70
2024-05-09T15:13:20.031Z,8.90
2024-05-09T15:15:48.835Z,6.60
2024-05-09T15:18:18.074Z,9.70
2024-05-09T15:20:46.907Z,8.50
2024-05-09T15:23:15.034Z,7.80
2024-05-09T15:25:44.504Z,8.30
2024-05-09T15:28:12.711Z,9.20
2024-05-09T15:30:45.379Z,7.80
2024-05-09T15:33:15.015Z,8.80
2024-05-09T15:35:43.352Z,7.90
2024-05-09T15:38:12.474Z,8.00
2024-05-09T15:40:41.177Z,7.70
2024-05-09T15:43:11.590Z,7.70
2024-05-09T15:45:41.382Z,8.60
2024-05-09T15:48:10.653Z,8.60
2024-05-09T15:50:41.724Z,7.50
2024-05-09T15:53:13.375Z,8.10
2024-05-09T15:55:43.169Z,9.20
2024-05-09T15:58:12.416Z,8.60
2024-05-09T16:00:43.707Z,7.70
2024-05-09T16:03:14.677Z,9.10
2024-05-09T16:05:45.002Z,10.00
2024-05-09T16:08:14.846Z,10.70
2024-05-09T16:10:45.860Z,12.10
2024-05-09T16:13:16.293Z,14.50
2024-05-09T16:15:45.380Z,11.70
2024-05-09T16:18:13.846Z,11.00
2024-05-09T16:20:44.156Z,12.30
2024-05-09T16:23:13.741Z,12.60
2024-05-09T16:25:45.349Z,15.10
2024-05-09T16:28:13.723Z,12.80
2024-05-09T16:30:42.229Z,14.70
2024-05-09T16:33:13.596Z,11.30
2024-05-09T16:35:41.871Z,11.20
2024-05-09T16:38:10.332Z,12.10
2024-05-09T16:40:40.747Z,13.00
2024-05-09T16:43:12.338Z,14.80
2024-05-09T16:45:45.167Z,11.80
2024-05-09T16:48:14.160Z,12.90
2024-05-09T16:50:43.306Z,13.10
2024-05-09T16:53:11.335Z,12.50
2024-05-09T16:55:39.419Z,11.20
2024-05-09T16:58:08.233Z,10.20
2024-05-09T17:00:41.598Z,13.30
2024-05-09T17:03:16.563Z,13.80
2024-05-09T17:05:46.786Z,10.80
2024-05-09T17:08:18.466Z,13.40
2024-05-09T17:10:50.507Z,17.30
2024-05-09T17:13:19.219Z,12.80
2024-05-09T17:15:51.970Z,12.30
2024-05-09T17:18:20.905Z,13.20
2024-05-09T17:20:51.232Z,13.80
2024-05-09T17:23:19.184Z,14.40
2024-05-09T17:25:47.443Z,13.40
2024-05-09T17:28:15.759Z,16.10
2024-05-09T17:30:44.097Z,12.50
2024-05-09T17:33:13.116Z,14.40
2024-05-09T17:35:41.817Z,15.50
2024-05-09T17:38:09.962Z,13.30
2024-05-09T17:40:38.995Z,14.40
2024-05-09T17:43:10.435Z,16.50
2024-05-09T17:45:40.790Z,17.30
2024-05-09T17:48:11.644Z,16.30
2024-05-09T17:50:41.924Z,13.90
2024-05-09T17:53:10.986Z,12.60
2024-05-09T17:55:40.530Z,17.40
2024-05-09T17:58:09.890Z,13.50
2024-05-09T18:00:41.050Z,16.00
2024-05-09T18:03:12.068Z,12.90
2024-05-09T18:05:43.345Z,11.70
2024-05-09T18:08:14.005Z,15.50
2024-05-09T18:10:42.931Z,13.30
2024-05-09T18:13:12.287Z,10.90
2024-05-09T18:15:41.480Z,10.90
2024-05-09T18:18:10.660Z,14.80
2024-05-09T18:20:43.940Z,20.50
2024-05-09T18:23:16.252Z,13.10
2024-05-09T18:28:15.035Z,10.40
2024-05-09T18:30:43.118Z,11.10
2024-05-09T18:33:11.993Z,10.50
2024-05-09T18:35:44.669Z,11.60
2024-05-09T18:38:12.903Z,11.70
2024-05-09T18:40:43.564Z,11.40
2024-05-09T18:43:13.517Z,13.00
2024-05-09T18:45:41.465Z,13.00
2024-05-09T18:48:10.205Z,12.30
2024-05-09T18:50:40.763Z,12.00
2024-05-09T18:53:12.077Z,15.00
2024-05-09T18:55:42.036Z,11.90
2024-05-09T18:58:10.475Z,12.10
2024-05-09T19:00:41.425Z,11.90
2024-05-09T19:03:13.834Z,15.30
2024-05-09T19:05:45.024Z,12.40
2024-05-09T19:08:15.243Z,10.60
2024-05-09T19:10:45.356Z,11.20
2024-05-09T19:13:14.607Z,12.80
2024-05-09T19:15:43.869Z,12.60
2024-05-09T19:18:14.192Z,11.70
2024-05-09T19:20:43.664Z,13.20
2024-05-09T19:23:12.179Z,14.40
2024-05-09T19:25:40.734Z,12.40
2024-05-09T19:28:10.398Z,15.60
2024-05-09T19:30:41.739Z,13.50
2024-05-09T19:33:13.201Z,13.60
2024-05-09T19:38:12.226Z,13.10
2024-05-09T19:40:40.732Z,12.10
2024-05-09T19:43:09.299Z,15.40
2024-05-09T19:45:37.778Z,13.60
2024-05-09T19:48:06.886Z,16.20
2024-05-09T19:50:41.946Z,13.50
2024-05-09T19:53:14.316Z,15.40
2024-05-09T19:55:43.337Z,14.70
2024-05-09T19:58:12.872Z,13.60
2024-05-09T20:00:43.657Z,15.40
2024-05-09T20:03:14.834Z,16.50
2024-05-09T20:05:46.408Z,16.00
2024-05-09T20:10:43.481Z,14.60
2024-05-09T20:13:11.546Z,15.20
2024-05-09T20:15:39.906Z,14.80
2024-05-09T20:18:08.323Z,14.60
2024-05-09T20:20:40.358Z,14.50
2024-05-09T20:23:12.299Z,16.70
2024-05-09T20:25:41.546Z,14.50
2024-05-09T20:28:10.377Z,17.00
2024-05-09T20:30:38.973Z,16.00
2024-05-09T20:33:08.847Z,15.80
2024-05-09T20:35:38.247Z,16.40
2024-05-09T20:38:06.310Z,14.90
2024-05-09T20:40:37.732Z,15.00
2024-05-09T20:43:09.152Z,15.50
2024-05-09T20:45:37.674Z,12.70
2024-05-09T20:48:06.672Z,13.80
2024-05-09T20:50:39.420Z,13.00
2024-05-09T20:53:11.738Z,12.50
2024-05-09T20:55:40.468Z,12.50
2024-05-09T20:58:10.091Z,11.90
2024-05-09T21:00:42.484Z,14.20
2024-05-09T21:03:15.815Z,12.00
2024-05-09T21:05:45.902Z,12.50
2024-05-09T21:08:14.293Z,11.60
2024-05-09T21:10:42.499Z,11.40
2024-05-09T21:13:11.545Z,11.70
2024-05-09T21:15:39.703Z,8.80
2024-05-09T21:18:08.080Z,9.60
2024-05-09T21:20:37.445Z,11.00
2024-05-09T21:23:05.863Z,11.50
2024-05-09T21:25:33.935Z,12.80
2024-05-09T21:28:02.942Z,11.20
2024-05-09T21:30:38.861Z,11.40
2024-05-09T21:33:13.431Z,11.10
2024-05-09T21:35:44.298Z,8.70
2024-05-09T21:38:14.473Z,8.20
2024-05-09T21:40:43.951Z,8.80
2024-05-09T21:43:12.694Z,8.80
2024-05-09T21:45:41.092Z,8.30
2024-05-09T21:48:09.467Z,9.20
2024-05-09T21:50:41.128Z,9.10
2024-05-09T21:53:12.589Z,7.60
2024-05-09T21:55:44.853Z,8.00
2024-05-09T21:58:16.220Z,6.30
2024-05-09T22:03:15.115Z,12.10
2024-05-09T22:05:44.963Z,10.80
2024-05-09T22:08:13.606Z,6.90
2024-05-09T22:10:42.387Z,7.60
2024-05-09T22:13:10.810Z,8.80
2024-05-09T22:15:40.421Z,8.90
2024-05-09T22:18:10.992Z,7.60
2024-05-09T22:20:45.379Z,7.20
2024-05-09T22:23:15.718Z,8.10
2024-05-09T22:25:44.339Z,8.20
2024-05-09T22:28:16.322Z,9.00
2024-05-09T22:30:46.246Z,8.00
2024-05-09T22:33:15.270Z,8.10
2024-05-09T22:35:43.443Z,6.90
2024-05-09T22:38:11.714Z,6.70
2024-05-09T22:40:47.308Z,7.00
2024-05-09T22:43:20.796Z,6.90
2024-05-09T22:45:50.728Z,5.60
2024-05-09T22:48:19.604Z,5.20
2024-05-09T22:50:47.753Z,8.10
2024-05-09T22:53:15.841Z,6.50
2024-05-09T22:55:44.094Z,6.20
2024-05-09T22:58:12.418Z,7.10
2024-05-09T23:00:40.542Z,5.00
2024-05-09T23:03:09.075Z,5.50
2024-05-09T23:05:37.366Z,5.90
2024-05-09T23:08:06.288Z,5.10
2024-05-09T23:10:37.698Z,5.40
2024-05-09T23:13:07.974Z,5.50
2024-05-09T23:15:38.454Z,5.60
2024-05-09T23:18:07.691Z,5.90
2024-05-09T23:20:39.032Z,6.40
2024-05-09T23:23:10.857Z,5.80
2024-05-09T23:25:43.665Z,6.00
2024-05-09T23:28:12.692Z,5.90
2024-05-09T23:30:42.135Z,5.20
2024-05-09T23:33:12.668Z,6.00
2024-05-09T23:35:42.343Z,6.20
2024-05-09T23:38:10.694Z,4.80
2024-05-09T23:40:40.890Z,5.70
2024-05-09T23:43:11.650Z,5.50
2024-05-09T23:45:41.452Z,6.10
2024-05-09T23:48:10.267Z,5.80
2024-05-09T23:50:40.132Z,6.50
2024-05-09T23:53:09.866Z,5.60
2024-05-09T23:55:39.089Z,6.20
2024-05-09T23:58:08.198Z,5.90
